Bloomington (BMI/KBMI)

Map

Information

Location
Bloomington, IL
Local Time
19:05 / 7:05 pm
GMT Time
00:05 / 12:05 am
Gates
A1
No FAA reported delays
METAR KBMI 252356Z 16020G24KT 10SM CLR 23/11 A2951 RMK AO2 PK WND 16030/2305 SLP009 T02330111 10261 20228 55010
TAF KBMI 252329Z 2600/2624 17014G24KT P6SM BKN200 FM260300 16016KT P6SM BKN100 FM261200 18014KT P6SM VCSH SCT018 OVC030 FM261700 20014G22KT P6SM VCTS BKN035CB FM262200 19015KT 4SM -SHRA VCTS SCT006 OVC012CB